createdAt,value
2016-06-07T00:00:30.819Z,0
2016-06-07T00:01:30.103Z,0
2016-06-07T00:02:30.591Z,0
2016-06-07T00:03:44.703Z,0
2016-06-07T00:04:30.642Z,0
2016-06-07T00:05:29.989Z,0
2016-06-07T00:06:30.866Z,0
2016-06-07T00:07:30.619Z,0
2016-06-07T00:08:30.840Z,0
2016-06-07T00:09:30.640Z,0
2016-06-07T00:11:30.208Z,0
2016-06-07T00:12:30.665Z,0
2016-06-07T00:13:30.729Z,0
2016-06-07T00:14:30.950Z,0
2016-06-07T00:15:30.687Z,0
2016-06-07T00:16:30.721Z,0
2016-06-07T00:17:30.912Z,0
2016-06-07T00:18:30.711Z,0
2016-06-07T00:19:30.917Z,0
2016-06-07T00:20:30.576Z,0
2016-06-07T00:21:31.173Z,0
2016-06-07T00:22:30.442Z,0
2016-06-07T00:23:30.772Z,0
2016-06-07T00:24:31.164Z,0
2016-06-07T00:25:30.636Z,0
2016-06-07T00:26:30.764Z,0
2016-06-07T00:27:30.797Z,0
2016-06-07T00:28:30.770Z,0
2016-06-07T00:29:30.789Z,0
2016-06-07T00:30:30.791Z,0
2016-06-07T00:31:31.183Z,0
2016-06-07T00:32:44.905Z,0
2016-06-07T00:33:30.517Z,0
2016-06-07T00:34:31.036Z,0
2016-06-07T00:35:32.179Z,0
2016-06-07T00:36:31.479Z,0
2016-06-07T00:37:31.465Z,0
2016-06-07T00:38:32.328Z,0
2016-06-07T00:39:30.830Z,0
2016-06-07T00:40:30.864Z,0
2016-06-07T00:41:31.054Z,0
2016-06-07T00:42:30.854Z,0
2016-06-07T00:43:30.373Z,0
2016-06-07T00:44:30.859Z,0
2016-06-07T00:45:45.003Z,0
2016-06-07T00:46:30.896Z,0
2016-06-07T00:47:31.165Z,0
2016-06-07T00:48:30.901Z,0
2016-06-07T00:49:31.232Z,0
2016-06-07T00:50:30.922Z,0
2016-06-07T00:51:30.940Z,0
2016-06-07T00:52:31.193Z,0
2016-06-07T00:53:45.415Z,0
2016-06-07T00:54:31.152Z,0
2016-06-07T00:55:44.889Z,0
2016-06-07T00:56:30.970Z,0
2016-06-07T00:57:30.973Z,0
2016-06-07T00:58:31.163Z,0
2016-06-07T00:59:30.994Z,0
2016-06-07T01:00:31.044Z,0
2016-06-07T01:01:45.077Z,0
2016-06-07T01:02:30.877Z,0
2016-06-07T01:03:31.020Z,0
2016-06-07T01:04:31.038Z,0
2016-06-07T01:05:31.072Z,0
2016-06-07T01:06:31.152Z,0
2016-06-07T01:07:31.452Z,0
2016-06-07T01:08:31.268Z,0
2016-06-07T01:09:31.068Z,0
2016-06-07T01:10:30.899Z,0
2016-06-07T01:11:31.104Z,0
2016-06-07T01:12:31.043Z,0
2016-06-07T01:13:31.124Z,0
2016-06-07T01:14:31.315Z,0
2016-06-07T01:15:30.834Z,0
2016-06-07T01:17:31.089Z,0
2016-06-07T01:18:30.638Z,0
2016-06-07T01:19:31.094Z,0
2016-06-07T01:20:30.940Z,0
2016-06-07T01:21:31.131Z,0
2016-06-07T01:22:31.290Z,0
2016-06-07T01:23:31.308Z,0
2016-06-07T01:24:31.139Z,0
2016-06-07T01:25:31.328Z,0
2016-06-07T01:26:31.942Z,0
2016-06-07T01:27:31.319Z,0
2016-06-07T01:28:31.619Z,0
2016-06-07T01:29:31.152Z,0
2016-06-07T01:30:31.155Z,0
2016-06-07T01:31:31.017Z,0
2016-06-07T01:32:31.223Z,0
2016-06-07T01:33:45.678Z,0
2016-06-07T01:34:31.197Z,0
2016-06-07T01:35:31.402Z,0
2016-06-07T01:36:31.797Z,0
2016-06-07T01:37:31.268Z,0
2016-06-07T01:38:31.192Z,0
2016-06-07T01:39:31.476Z,0
2016-06-07T01:40:31.229Z,0
2016-06-07T01:41:31.247Z,0
2016-06-07T01:42:30.938Z,0
2016-06-07T01:43:31.268Z,0
2016-06-07T01:44:31.239Z,0
2016-06-07T01:45:31.257Z,0
2016-06-07T01:47:31.294Z,0
2016-06-07T01:48:31.113Z,0
2016-06-07T01:49:31.287Z,0
2016-06-07T01:50:31.757Z,0
2016-06-07T01:51:31.463Z,0
2016-06-07T01:52:31.371Z,0
2016-06-07T01:53:31.590Z,0
2016-06-07T01:54:31.395Z,0
2016-06-07T01:55:31.403Z,0
2016-06-07T01:56:31.412Z,0
2016-06-07T01:57:31.419Z,0
2016-06-07T01:58:31.302Z,0
2016-06-07T01:59:31.649Z,0
2016-06-07T02:00:31.653Z,0
2016-06-07T02:01:31.830Z,0
2016-06-07T02:02:31.476Z,0
2016-06-07T02:03:31.667Z,0
2016-06-07T02:04:31.484Z,4
2016-06-07T02:05:31.457Z,4
2016-06-07T02:06:32.538Z,4
2016-06-07T02:07:31.509Z,0
2016-06-07T02:10:31.723Z,4
2016-06-07T02:11:31.756Z,4
2016-06-07T02:12:31.744Z,4
2016-06-07T02:13:31.778Z,4
2016-06-07T02:14:31.735Z,4
2016-06-07T02:15:31.533Z,4
2016-06-07T02:16:31.755Z,4
2016-06-07T02:17:31.757Z,8
2016-06-07T02:18:31.558Z,8
2016-06-07T02:19:31.779Z,8
2016-06-07T02:20:31.407Z,8
2016-06-07T02:21:31.424Z,12
2016-06-07T02:22:31.787Z,12
2016-06-07T02:23:45.868Z,12
2016-06-07T02:24:31.605Z,16
2016-06-07T02:25:31.623Z,16
2016-06-07T02:26:32.048Z,20
2016-06-07T02:27:31.613Z,20
2016-06-07T02:28:45.897Z,28
2016-06-07T02:29:31.634Z,32
2016-06-07T02:30:45.745Z,32
2016-06-07T02:31:31.686Z,36
2016-06-07T02:32:31.626Z,44
2016-06-07T02:33:31.832Z,48
2016-06-07T02:34:31.648Z,56
2016-06-07T02:35:31.494Z,60
2016-06-07T02:36:32.278Z,68
2016-06-07T02:37:32.108Z,72
2016-06-07T02:38:31.424Z,80
2016-06-07T02:39:31.692Z,92
2016-06-07T02:40:31.664Z,104
2016-06-07T02:41:31.682Z,112
2016-06-07T02:42:31.200Z,124
2016-06-07T02:43:31.672Z,132
2016-06-07T02:44:31.674Z,148
2016-06-07T02:45:32.083Z,164
2016-06-07T02:46:31.711Z,176
2016-06-07T02:47:31.916Z,192
2016-06-07T02:48:31.701Z,212
2016-06-07T02:49:31.765Z,228
2016-06-07T02:50:31.238Z,248
2016-06-07T02:51:31.819Z,268
2016-06-07T02:52:31.757Z,288
2016-06-07T02:53:31.730Z,308
2016-06-07T02:54:31.263Z,332
2016-06-07T02:55:31.954Z,352
2016-06-07T02:56:31.957Z,376
2016-06-07T02:57:31.803Z,404
2016-06-07T02:58:31.790Z,428
2016-06-07T02:59:31.496Z,456
2016-06-07T03:00:32.202Z,488
2016-06-07T03:01:46.095Z,524
2016-06-07T03:02:59.959Z,560
2016-06-07T03:03:46.522Z,588
2016-06-07T03:04:31.665Z,616
2016-06-07T03:05:31.747Z,652
2016-06-07T03:06:32.139Z,676
2016-06-07T03:07:31.798Z,712
2016-06-07T03:08:45.926Z,752
2016-06-07T03:09:31.820Z,780
2016-06-07T03:10:32.025Z,816
2016-06-07T03:11:31.825Z,852
2016-06-07T03:12:31.858Z,888
2016-06-07T03:13:32.080Z,928
2016-06-07T03:14:32.286Z,964
2016-06-07T03:15:31.851Z,1004
2016-06-07T03:16:32.057Z,1040
2016-06-07T03:17:31.872Z,1076
2016-06-07T03:18:31.922Z,1116
2016-06-07T03:19:31.410Z,1156
2016-06-07T03:20:32.083Z,1200
2016-06-07T03:21:32.883Z,1240
2016-06-07T03:22:31.949Z,1276
2016-06-07T03:23:46.013Z,1328
2016-06-07T03:24:31.938Z,1364
2016-06-07T03:25:31.926Z,1404
2016-06-07T03:26:31.913Z,1444
2016-06-07T03:27:32.149Z,1484
2016-06-07T03:28:31.949Z,1524
2016-06-07T03:29:32.373Z,1568
2016-06-07T03:30:31.970Z,1604
2016-06-07T03:31:31.457Z,1644
2016-06-07T03:32:46.038Z,1696
2016-06-07T03:33:32.400Z,1728
2016-06-07T03:34:31.965Z,1764
2016-06-07T03:35:32.233Z,1804
2016-06-07T03:36:46.064Z,1852
2016-06-07T03:37:46.254Z,1892
2016-06-07T03:38:32.006Z,1920
2016-06-07T03:39:32.431Z,1956
2016-06-07T03:40:32.044Z,1992
2016-06-07T03:41:32.187Z,2036
2016-06-07T03:43:31.849Z,2112
2016-06-07T03:44:32.102Z,2148
2016-06-07T03:45:32.025Z,2180
2016-06-07T03:46:46.122Z,2228
2016-06-07T03:47:32.438Z,2248
2016-06-07T03:48:32.268Z,2284
2016-06-07T03:49:32.036Z,2316
2016-06-07T03:50:32.071Z,2352
2016-06-07T03:52:32.279Z,2420
2016-06-07T03:54:32.254Z,2484
2016-06-07T03:55:32.068Z,2516
2016-06-07T03:56:32.087Z,2548
2016-06-07T03:57:32.073Z,2580
2016-06-07T03:58:32.076Z,2608
2016-06-07T03:59:32.095Z,2640
2016-06-07T04:00:32.098Z,2664
2016-06-07T04:01:32.116Z,2700
2016-06-07T04:02:32.134Z,2724
2016-06-07T04:03:32.153Z,2752
2016-06-07T04:04:32.201Z,2784
2016-06-07T04:05:32.142Z,2808
2016-06-07T04:06:32.161Z,2836
2016-06-07T04:07:32.304Z,2860
2016-06-07T04:08:32.369Z,2892
2016-06-07T04:09:32.153Z,2912
2016-06-07T04:10:32.375Z,2944
2016-06-07T04:11:32.174Z,2968
2016-06-07T04:12:32.598Z,2992
2016-06-07T04:13:32.711Z,3020
2016-06-07T04:14:32.370Z,3040
2016-06-07T04:15:32.231Z,3068
2016-06-07T04:16:32.233Z,3088
2016-06-07T04:19:32.414Z,3148
2016-06-07T04:20:32.651Z,3172
2016-06-07T04:21:32.263Z,3192
2016-06-07T04:22:33.469Z,3212
2016-06-07T04:23:32.691Z,3232
2016-06-07T04:24:32.944Z,3252
2016-06-07T04:25:32.274Z,3268
2016-06-07T04:26:32.260Z,3284
2016-06-07T04:27:32.264Z,3300
2016-06-07T04:28:32.298Z,3312
2016-06-07T04:29:32.285Z,3328
2016-06-07T04:30:32.287Z,3344
2016-06-07T04:31:32.479Z,3368
2016-06-07T04:32:32.293Z,3388
2016-06-07T04:33:32.717Z,3400
2016-06-07T04:34:32.549Z,3420
2016-06-07T04:35:32.503Z,3436
2016-06-07T04:36:32.523Z,3436
2016-06-07T04:37:32.947Z,3444
2016-06-07T04:38:32.372Z,3456
2016-06-07T04:39:32.545Z,3472
2016-06-07T04:40:32.549Z,3476
2016-06-07T04:41:32.364Z,3488
2016-06-07T04:43:32.416Z,3508
2016-06-07T04:44:32.373Z,3516
2016-06-07T04:45:32.374Z,3524
2016-06-07T04:46:32.377Z,3532
2016-06-07T04:47:32.583Z,3544
2016-06-07T04:48:32.399Z,3552
2016-06-07T04:49:32.402Z,3560
2016-06-07T04:50:32.622Z,3572
2016-06-07T04:51:32.813Z,3580
2016-06-07T04:52:33.877Z,3592
2016-06-07T04:53:32.474Z,3604
2016-06-07T04:54:32.883Z,3612
2016-06-07T04:55:32.464Z,3624
2016-06-07T04:56:32.451Z,3636
2016-06-07T04:57:32.469Z,3648
2016-06-07T04:58:32.676Z,3660
2016-06-07T04:59:32.475Z,3672
2016-06-07T05:00:32.931Z,3684
2016-06-07T05:01:32.684Z,3696
2016-06-07T05:03:32.720Z,3720
2016-06-07T05:04:32.504Z,3732
2016-06-07T05:05:46.585Z,3748
2016-06-07T05:06:32.760Z,3760
2016-06-07T05:07:32.965Z,3768
2016-06-07T05:08:32.781Z,3768
2016-06-07T05:09:32.580Z,3784
2016-06-07T05:10:32.989Z,3792
2016-06-07T05:12:32.978Z,3812
2016-06-07T05:13:32.872Z,3820
2016-06-07T05:14:32.781Z,3828
2016-06-07T05:15:32.597Z,3832
2016-06-07T05:16:33.020Z,3840
2016-06-07T05:17:32.710Z,3848
2016-06-07T05:18:33.026Z,3852
2016-06-07T05:19:32.638Z,3856
2016-06-07T05:20:32.625Z,3860
2016-06-07T05:21:46.877Z,3864
2016-06-07T05:22:33.444Z,3876
2016-06-07T05:23:33.055Z,3880
2016-06-07T05:24:32.714Z,3884
2016-06-07T05:25:32.873Z,3904
2016-06-07T05:26:32.688Z,3916
2016-06-07T05:27:32.535Z,3920
2016-06-07T05:28:32.194Z,3928
2016-06-07T05:29:32.930Z,3932
2016-06-07T05:30:32.714Z,3940
2016-06-07T05:31:32.904Z,3952
2016-06-07T05:32:32.751Z,3960
2016-06-07T05:33:47.520Z,3968
2016-06-07T05:34:32.726Z,3972
2016-06-07T05:35:32.776Z,3984
2016-06-07T05:36:32.949Z,3984
2016-06-07T05:37:32.998Z,4000
2016-06-07T05:38:32.768Z,4000
2016-06-07T05:39:33.629Z,4012
2016-06-07T05:40:32.835Z,4056
2016-06-07T05:41:32.931Z,4060
2016-06-07T05:42:47.340Z,4040
2016-06-07T05:43:33.109Z,4044
2016-06-07T05:44:32.815Z,4068
2016-06-07T05:45:33.302Z,4072
2016-06-07T05:46:32.851Z,4120
2016-06-07T05:47:32.853Z,4092
2016-06-07T05:48:32.856Z,4068
2016-06-07T05:49:32.891Z,4052
2016-06-07T05:50:32.861Z,4060
2016-06-07T05:51:32.880Z,4064
2016-06-07T05:52:34.117Z,4068
2016-06-07T05:53:33.089Z,4072
2016-06-07T05:54:33.123Z,4084
2016-06-07T05:55:32.954Z,4120
2016-06-07T05:56:32.910Z,4152
2016-06-07T05:57:32.975Z,4108
2016-06-07T05:58:33.306Z,4092
2016-06-07T05:59:32.965Z,4088
2016-06-07T06:00:32.967Z,4092
2016-06-07T06:01:32.986Z,4100
2016-06-07T06:02:33.019Z,4108
2016-06-07T06:03:33.007Z,4120
2016-06-07T06:04:32.993Z,4124
2016-06-07T06:05:33.543Z,4140
2016-06-07T06:06:33.296Z,4148
2016-06-07T06:07:33.143Z,4148
2016-06-07T06:08:33.301Z,4164
2016-06-07T06:09:33.054Z,4180
2016-06-07T06:10:33.057Z,4196
2016-06-07T06:11:33.293Z,4216
2016-06-07T06:12:33.468Z,4236
2016-06-07T06:13:33.128Z,4252
2016-06-07T06:14:32.583Z,4280
2016-06-07T06:15:33.101Z,4308
2016-06-07T06:16:33.088Z,4340
2016-06-07T06:17:33.139Z,4364
2016-06-07T06:18:33.344Z,4404
2016-06-07T06:19:33.128Z,4436
2016-06-07T06:20:33.146Z,4484
2016-06-07T06:21:32.992Z,4536
2016-06-07T06:22:33.370Z,4592
2016-06-07T06:23:33.201Z,4660
2016-06-07T06:24:33.172Z,4740
2016-06-07T06:25:33.222Z,4836
2016-06-07T06:26:33.444Z,4920
2016-06-07T06:27:33.290Z,4980
2016-06-07T06:28:46.871Z,5064
2016-06-07T06:29:33.451Z,5108
2016-06-07T06:30:33.517Z,5164
2016-06-07T06:31:33.254Z,5224
2016-06-07T06:32:33.443Z,5276
2016-06-07T06:33:32.963Z,5312
2016-06-07T06:34:33.480Z,5384
2016-06-07T06:35:33.107Z,5488
2016-06-07T06:36:33.501Z,5576
2016-06-07T06:37:33.817Z,5716
2016-06-07T06:38:33.523Z,5884
2016-06-07T06:39:33.322Z,5984
2016-06-07T06:40:33.325Z,6072
2016-06-07T06:41:33.342Z,6144
2016-06-07T06:42:33.331Z,6144
2016-06-07T06:43:33.209Z,6116
2016-06-07T06:44:47.507Z,6208
2016-06-07T06:45:33.634Z,6264
2016-06-07T06:46:33.607Z,6260
2016-06-07T06:47:33.390Z,6216
2016-06-07T06:48:33.392Z,6204
2016-06-07T06:49:33.428Z,6228
2016-06-07T06:50:33.414Z,6224
2016-06-07T06:51:32.980Z,6188
2016-06-07T06:52:33.497Z,6120
2016-06-07T06:53:47.814Z,6036
2016-06-07T06:54:33.488Z,5980
2016-06-07T06:55:47.958Z,5912
2016-06-07T06:56:33.759Z,5824
2016-06-07T06:57:33.980Z,5752
2016-06-07T06:58:33.733Z,5768
2016-06-07T06:59:33.532Z,5724
2016-06-07T07:00:33.065Z,5620
2016-06-07T07:01:33.741Z,5456
2016-06-07T07:02:33.728Z,5316
2016-06-07T07:03:33.558Z,5192
2016-06-07T07:04:33.436Z,5068
2016-06-07T07:05:33.783Z,4968
2016-06-07T07:06:33.832Z,4932
2016-06-07T07:07:34.460Z,4940
2016-06-07T07:08:34.103Z,4932
2016-06-07T07:09:33.996Z,4944
2016-06-07T07:10:33.702Z,4896
2016-06-07T07:11:33.626Z,4872
2016-06-07T07:12:34.395Z,4848
2016-06-07T07:13:33.726Z,4788
2016-06-07T07:14:33.807Z,4748
2016-06-07T07:15:33.794Z,4656
2016-06-07T07:16:33.890Z,4544
2016-06-07T07:18:33.895Z,4400
2016-06-07T07:19:33.773Z,4348
2016-06-07T07:20:33.760Z,4316
2016-06-07T07:21:33.279Z,4320
2016-06-07T07:22:33.984Z,4344
2016-06-07T07:23:47.830Z,4376
2016-06-07T07:24:33.756Z,4400
2016-06-07T07:25:33.758Z,4420
2016-06-07T07:26:33.620Z,4448
2016-06-07T07:27:47.857Z,4464
2016-06-07T07:28:34.047Z,4456
2016-06-07T07:29:33.707Z,4460
2016-06-07T07:30:34.741Z,4456
2016-06-07T07:31:33.852Z,4456
2016-06-07T07:32:33.886Z,4468
2016-06-07T07:33:33.686Z,4472
2016-06-07T07:34:47.955Z,4472
2016-06-07T07:35:33.707Z,4480
2016-06-07T07:36:33.538Z,4484
2016-06-07T07:37:34.604Z,4488
2016-06-07T07:38:33.918Z,4496
2016-06-07T07:40:34.157Z,4516
2016-06-07T07:41:33.958Z,4536
2016-06-07T07:42:33.960Z,4552
2016-06-07T07:43:33.963Z,4556
2016-06-07T07:44:34.184Z,4568
2016-06-07T07:45:33.468Z,4584
2016-06-07T07:46:34.642Z,4600
2016-06-07T07:47:34.209Z,4600
2016-06-07T07:48:34.008Z,4592
2016-06-07T07:49:34.010Z,4580
2016-06-07T07:50:34.356Z,4572
2016-06-07T07:51:34.281Z,4580
2016-06-07T07:52:34.644Z,4588
2016-06-07T07:53:34.286Z,4608
2016-06-07T07:54:34.149Z,4620
2016-06-07T07:55:48.386Z,4624
2016-06-07T07:56:34.544Z,4628
2016-06-07T07:57:34.360Z,4624
2016-06-07T07:58:34.144Z,4628
2016-06-07T07:59:33.975Z,4640
2016-06-07T08:00:34.368Z,4652
2016-06-07T08:01:33.871Z,4664
2016-06-07T08:02:34.249Z,4676
2016-06-07T08:03:34.204Z,4692
2016-06-07T08:04:34.394Z,4708
2016-06-07T08:05:34.428Z,4724
2016-06-07T08:06:34.259Z,4752
2016-06-07T08:07:35.466Z,4788
2016-06-07T08:08:48.327Z,4840
2016-06-07T08:09:34.486Z,4880
2016-06-07T08:10:34.457Z,4924
2016-06-07T08:11:34.023Z,4988
2016-06-07T08:12:34.541Z,5056
2016-06-07T08:13:34.356Z,5076
2016-06-07T08:14:34.390Z,5076
2016-06-07T08:15:34.658Z,5052
2016-06-07T08:16:34.364Z,5024
2016-06-07T08:17:34.351Z,5000
2016-06-07T08:18:34.385Z,4972
2016-06-07T08:19:34.795Z,4988
2016-06-07T08:20:34.609Z,4976
2016-06-07T08:21:33.596Z,4944
2016-06-07T08:22:34.692Z,4968
2016-06-07T08:23:34.415Z,4968
2016-06-07T08:24:34.573Z,4972
2016-06-07T08:25:34.169Z,5008
2016-06-07T08:26:34.688Z,5024
2016-06-07T08:27:34.878Z,5044
2016-06-07T08:28:34.458Z,5028
2016-06-07T08:29:35.384Z,5052
2016-06-07T08:30:34.574Z,5044
2016-06-07T08:31:34.780Z,5040
2016-06-07T08:32:34.532Z,5044
2016-06-07T08:33:34.754Z,5052
2016-06-07T08:34:35.084Z,5032
2016-06-07T08:35:34.805Z,4960
2016-06-07T08:36:34.575Z,4896
2016-06-07T08:37:34.796Z,4880
2016-06-07T08:38:35.329Z,4936
2016-06-07T08:39:49.316Z,4992
2016-06-07T08:40:34.678Z,5024
2016-06-07T08:41:34.651Z,5068
2016-06-07T08:42:34.715Z,5092
2016-06-07T08:43:34.671Z,5092
2016-06-07T08:44:34.673Z,5076
2016-06-07T08:45:34.676Z,5096
2016-06-07T08:46:34.914Z,5116
2016-06-07T08:47:34.635Z,5096
2016-06-07T08:48:48.856Z,5080
2016-06-07T08:49:34.968Z,5092
2016-06-07T08:50:34.799Z,5120
2016-06-07T08:51:34.834Z,5160
2016-06-07T08:52:36.680Z,5188
2016-06-07T08:53:34.870Z,5220
2016-06-07T08:54:35.185Z,5232
2016-06-07T08:55:34.813Z,5272
2016-06-07T08:56:35.409Z,5316
2016-06-07T08:57:35.428Z,5372
2016-06-07T08:58:35.086Z,5424
2016-06-07T08:59:53.324Z,5448
2016-06-07T09:00:48.967Z,5492
2016-06-07T09:01:34.875Z,5540
2016-06-07T09:02:34.894Z,5568
2016-06-07T09:03:34.897Z,5568
2016-06-07T09:04:35.180Z,5552
2016-06-07T09:05:34.949Z,5520
2016-06-07T09:06:35.389Z,5516
2016-06-07T09:07:35.907Z,5512
2016-06-07T09:08:35.316Z,5528
2016-06-07T09:09:35.022Z,5536
2016-06-07T09:10:35.212Z,5528
2016-06-07T09:11:35.200Z,5464
2016-06-07T09:12:35.046Z,5408
2016-06-07T09:13:35.299Z,5324
2016-06-07T09:14:34.645Z,5284
2016-06-07T09:15:34.929Z,5236
2016-06-07T09:16:35.073Z,5192
2016-06-07T09:17:35.090Z,5184
2016-06-07T09:18:34.703Z,5168
2016-06-07T09:20:35.176Z,5148
2016-06-07T09:21:35.571Z,5140
2016-06-07T09:22:35.354Z,5128
2016-06-07T09:23:35.263Z,5128
2016-06-07T09:25:35.628Z,5188
2016-06-07T09:26:35.225Z,5240
2016-06-07T09:27:35.446Z,5308
2016-06-07T09:28:35.761Z,5348
2016-06-07T09:29:35.466Z,5364
2016-06-07T09:30:35.438Z,5400
2016-06-07T09:31:35.754Z,5432
2016-06-07T09:32:35.350Z,5440
2016-06-07T09:33:35.306Z,5476
2016-06-07T09:34:35.575Z,5512
2016-06-07T09:35:35.780Z,5580
2016-06-07T09:36:35.563Z,5640
2016-06-07T09:37:35.847Z,5656
2016-06-07T09:38:35.741Z,5672
2016-06-07T09:39:35.384Z,5700
2016-06-07T09:40:35.824Z,5740
2016-06-07T09:41:35.827Z,5804
2016-06-07T09:42:35.440Z,5868
2016-06-07T09:43:35.629Z,5952
2016-06-07T09:44:35.570Z,6004
2016-06-07T09:45:49.556Z,6080
2016-06-07T09:46:35.513Z,6092
2016-06-07T09:47:35.562Z,6136
2016-06-07T09:48:36.159Z,6232
2016-06-07T09:49:49.615Z,6388
2016-06-07T09:50:35.773Z,6516
2016-06-07T09:51:35.542Z,6692
2016-06-07T09:52:35.607Z,6868
2016-06-07T09:53:35.812Z,7076
2016-06-07T09:54:35.815Z,7468
2016-06-07T09:55:35.818Z,7808
2016-06-07T09:56:36.008Z,11328
2016-06-07T09:57:35.651Z,15264
2016-06-07T09:58:35.842Z,30208
2016-06-07T09:59:36.094Z,30112
2016-06-07T10:00:35.863Z,19744
2016-06-07T10:01:36.084Z,13544
2016-06-07T10:02:50.024Z,10412
2016-06-07T10:03:49.839Z,19552
2016-06-07T10:04:35.999Z,7960
2016-06-07T10:05:35.861Z,7596
2016-06-07T10:06:35.957Z,7996
2016-06-07T10:08:36.260Z,29600
2016-06-07T10:09:49.716Z,31808
2016-06-07T10:10:35.827Z,31200
2016-06-07T10:11:35.829Z,55744
2016-06-07T10:12:35.410Z,67712
2016-06-07T10:13:36.304Z,64000
2016-06-07T10:14:35.869Z,66592
2016-06-07T10:15:35.716Z,55264
2016-06-07T10:16:49.952Z,43936
2016-06-07T10:17:50.002Z,64352
2016-06-07T10:18:46.052Z,69312
2016-06-07T10:19:50.431Z,71776
2016-06-07T10:20:35.962Z,77632
2016-06-07T10:21:35.996Z,79968
2016-06-07T10:22:36.873Z,76096
2016-06-07T10:23:50.316Z,75040
2016-06-07T10:24:36.019Z,74496
2016-06-07T10:25:36.365Z,67712
2016-06-07T10:26:36.041Z,68320
2016-06-07T10:27:36.246Z,60992
2016-06-07T10:28:36.702Z,57440
2016-06-07T10:29:36.079Z,50400
2016-06-07T10:30:36.285Z,40704
2016-06-07T10:31:36.115Z,46304
2016-06-07T10:32:36.151Z,42784
2016-06-07T10:33:36.340Z,42304
2016-06-07T10:34:50.315Z,30240
2016-06-07T10:35:36.174Z,22400
2016-06-07T10:36:36.426Z,16416
2016-06-07T10:37:36.242Z,15260
2016-06-07T10:38:36.353Z,14724
2016-06-07T10:39:36.467Z,14352
2016-06-07T10:40:50.190Z,13756
2016-06-07T10:41:36.268Z,13384
2016-06-07T10:42:36.740Z,12988
2016-06-07T10:43:50.401Z,12604
2016-06-07T10:44:36.730Z,12260
2016-06-07T10:45:36.389Z,12408
2016-06-07T10:46:36.360Z,12332
2016-06-07T10:47:36.394Z,12240
2016-06-07T10:48:36.630Z,12252
2016-06-07T10:49:36.587Z,12192
2016-06-07T10:50:50.717Z,11796
2016-06-07T10:51:50.719Z,11632
2016-06-07T10:52:36.704Z,11700
2016-06-07T10:53:36.691Z,11412
2016-06-07T10:54:36.537Z,11312
2016-06-07T10:55:36.709Z,11044
2016-06-07T10:56:36.086Z,10944
2016-06-07T10:58:36.793Z,10860
2016-06-07T10:59:36.827Z,10788
2016-06-07T11:00:36.837Z,10528
2016-06-07T11:01:36.672Z,10432
2016-06-07T11:02:51.002Z,10728
2016-06-07T11:03:36.705Z,11048
2016-06-07T11:04:36.228Z,11436
2016-06-07T11:05:36.811Z,11564
2016-06-07T11:06:36.769Z,11596
2016-06-07T11:07:36.539Z,11676
2016-06-07T11:08:37.982Z,11808
2016-06-07T11:09:36.830Z,11948
2016-06-07T11:10:36.693Z,12112
2016-06-07T11:11:36.868Z,12404
2016-06-07T11:12:37.325Z,12700
2016-06-07T11:13:37.188Z,12888
2016-06-07T11:14:36.909Z,13088
2016-06-07T11:15:36.929Z,13324
2016-06-07T11:16:37.135Z,13580
2016-06-07T11:17:36.731Z,13832
2016-06-07T11:18:36.563Z,14112
2016-06-07T11:19:36.722Z,14480
2016-06-07T11:20:36.897Z,14604
2016-06-07T11:21:37.056Z,14676
2016-06-07T11:22:37.058Z,15020
2016-06-07T11:23:37.483Z,15328
2016-06-07T11:24:37.125Z,15584
2016-06-07T11:25:37.097Z,15872
2016-06-07T11:26:37.210Z,15904
2016-06-07T11:27:51.762Z,15744
2016-06-07T11:28:51.436Z,15488
2016-06-07T11:29:37.436Z,15172
2016-06-07T11:30:37.189Z,15012
2016-06-07T11:31:37.223Z,15092
2016-06-07T11:32:37.430Z,15360
2016-06-07T11:33:37.650Z,14864
2016-06-07T11:34:37.450Z,14748
2016-06-07T11:35:37.296Z,14412
2016-06-07T11:36:37.487Z,14220
2016-06-07T11:37:37.785Z,13644
2016-06-07T11:38:37.226Z,13524
2016-06-07T11:39:37.338Z,13096
2016-06-07T11:40:37.418Z,12784
2016-06-07T11:41:51.487Z,12932
2016-06-07T11:42:37.393Z,12800
2016-06-07T11:43:37.834Z,12724
2016-06-07T11:44:37.618Z,12336
2016-06-07T11:45:37.636Z,12152
2016-06-07T11:46:37.685Z,11720
2016-06-07T11:47:37.469Z,11536
2016-06-07T11:48:51.568Z,11256
2016-06-07T11:49:37.709Z,10840
2016-06-07T11:50:37.525Z,10964
2016-06-07T11:51:51.608Z,11044
2016-06-07T11:52:37.764Z,10912
2016-06-07T11:53:37.720Z,10784
2016-06-07T11:54:37.581Z,10640
2016-06-07T11:55:37.444Z,10576
2016-06-07T11:56:37.618Z,10256
2016-06-07T11:57:37.856Z,10300
2016-06-07T11:58:38.139Z,10216
2016-06-07T11:59:37.392Z,10256
2016-06-07T12:00:37.708Z,10124
2016-06-07T12:01:37.929Z,10316
2016-06-07T12:02:37.822Z,9808
2016-06-07T12:03:38.184Z,9864
2016-06-07T12:04:37.765Z,9716
2016-06-07T12:05:37.783Z,9720
2016-06-07T12:06:37.552Z,9532
2016-06-07T12:07:37.852Z,9132
2016-06-07T12:08:38.166Z,9288
2016-06-07T12:09:37.404Z,9056
2016-06-07T12:10:37.859Z,9460
2016-06-07T12:11:37.893Z,9344
2016-06-07T12:12:38.129Z,9232
2016-06-07T12:13:37.773Z,9144
2016-06-07T12:14:38.167Z,9120
2016-06-07T12:15:37.967Z,9172
2016-06-07T12:16:37.954Z,9164
2016-06-07T12:17:37.987Z,9128
2016-06-07T12:18:38.287Z,8684
2016-06-07T12:19:38.290Z,8960
2016-06-07T12:20:52.123Z,9244
2016-06-07T12:21:38.279Z,9296
2016-06-07T12:22:38.517Z,9380
2016-06-07T12:23:38.785Z,9380
2016-06-07T12:24:38.241Z,9320
2016-06-07T12:25:37.634Z,9544
2016-06-07T12:26:37.965Z,9584
2016-06-07T12:27:38.374Z,9676
2016-06-07T12:28:38.158Z,9796
2016-06-07T12:29:38.675Z,9708
2016-06-07T12:30:38.210Z,9700
2016-06-07T12:31:38.244Z,9716
2016-06-07T12:32:38.247Z,9912
2016-06-07T12:33:38.249Z,9896
2016-06-07T12:34:38.861Z,10040
2016-06-07T12:35:38.816Z,10188
2016-06-07T12:36:41.319Z,10152
2016-06-07T12:37:38.760Z,10424
2016-06-07T12:38:38.340Z,10500
2016-06-07T12:39:39.968Z,10460
2016-06-07T12:40:38.393Z,10580
2016-06-07T12:41:52.696Z,10804
2016-06-07T12:42:38.415Z,10952
2016-06-07T12:43:38.417Z,11072
2016-06-07T12:44:38.670Z,11180
2016-06-07T12:45:52.534Z,11108
2016-06-07T12:46:38.471Z,11124
2016-06-07T12:47:38.490Z,11256
2016-06-07T12:48:38.743Z,11276
2016-06-07T12:49:38.527Z,11412
2016-06-07T12:50:38.748Z,11540
2016-06-07T12:51:38.798Z,11700
2016-06-07T12:53:39.912Z,12204
2016-06-07T12:54:39.400Z,12348
2016-06-07T12:55:38.839Z,12528
2016-06-07T12:56:38.858Z,12800
2016-06-07T12:57:38.876Z,12944
2016-06-07T12:58:38.692Z,13016
2016-06-07T12:59:38.913Z,13220
2016-06-07T13:00:38.963Z,13436
2016-06-07T13:01:38.965Z,13568
2016-06-07T13:02:38.952Z,13772
2016-06-07T13:03:38.971Z,13868
2016-06-07T13:04:38.989Z,13868
2016-06-07T13:05:38.648Z,14008
2016-06-07T13:06:38.838Z,14052
2016-06-07T13:07:39.043Z,14092
2016-06-07T13:08:39.328Z,14124
2016-06-07T13:09:39.940Z,14024
2016-06-07T13:10:38.896Z,13276
2016-06-07T13:11:54.323Z,13364
2016-06-07T13:12:39.166Z,13612
2016-06-07T13:13:38.951Z,13592
2016-06-07T13:14:39.406Z,13672
2016-06-07T13:15:38.971Z,13728
2016-06-07T13:16:38.802Z,13656
2016-06-07T13:17:38.867Z,13696
2016-06-07T13:18:39.245Z,13620
2016-06-07T13:19:39.045Z,13624
2016-06-07T13:20:39.267Z,13576
2016-06-07T13:21:39.269Z,13388
2016-06-07T13:22:39.350Z,13344
2016-06-07T13:23:40.134Z,13252
2016-06-07T13:24:39.808Z,13308
2016-06-07T13:25:39.155Z,13368
2016-06-07T13:26:39.375Z,13348
2016-06-07T13:27:39.207Z,13332
2016-06-07T13:28:39.257Z,13344
2016-06-07T13:29:39.416Z,13404
2016-06-07T13:30:39.372Z,13692
2016-06-07T13:31:38.796Z,13964
2016-06-07T13:32:39.314Z,14192
2016-06-07T13:33:39.176Z,14280
2016-06-07T13:34:39.319Z,14396
2016-06-07T13:35:39.322Z,14476
2016-06-07T13:36:39.794Z,14224
2016-06-07T13:37:39.219Z,13444
2016-06-07T13:38:40.080Z,13200
2016-06-07T13:39:40.583Z,14036
2016-06-07T13:40:39.664Z,14156
2016-06-07T13:41:39.651Z,14376
2016-06-07T13:42:39.762Z,14568
2016-06-07T13:43:39.672Z,14436
2016-06-07T13:44:39.987Z,14204
2016-06-07T13:45:39.537Z,14284
2016-06-07T13:46:39.992Z,14524
2016-06-07T13:47:39.104Z,14552
2016-06-07T13:48:53.860Z,14692